createdAt,value
2019-04-14T00:02:07.620Z,17.12
2019-04-14T00:07:16.783Z,18.06
2019-04-14T00:12:25.878Z,17.75
2019-04-14T00:17:35.191Z,18.82
2019-04-14T00:22:44.629Z,19.79
2019-04-14T00:27:54.255Z,19.65
2019-04-14T00:33:01.959Z,20.02
2019-04-14T00:38:11.033Z,21.84
2019-04-14T00:43:20.184Z,21.08
2019-04-14T00:48:29.881Z,20.87
2019-04-14T00:53:38.205Z,22.05
2019-04-14T00:58:47.539Z,22.95
2019-04-14T01:03:56.993Z,22.53
2019-04-14T01:09:06.345Z,25.74
2019-04-14T01:14:14.682Z,29.58
2019-04-14T01:19:22.521Z,23.69
2019-04-14T01:24:31.652Z,25.50
2019-04-14T01:29:40.784Z,25.95
2019-04-14T01:34:52.033Z,25.60
2019-04-14T01:39:58.910Z,25.46
2019-04-14T01:45:07.931Z,24.97
2019-04-14T01:50:16.903Z,25.46
2019-04-14T01:55:24.637Z,24.14
2019-04-14T02:00:33.834Z,25.97
2019-04-14T02:05:43.237Z,25.89
2019-04-14T02:10:52.427Z,25.99
2019-04-14T02:16:15.085Z,25.48
2019-04-14T02:21:10.789Z,26.00
2019-04-14T02:26:19.775Z,24.89
2019-04-14T02:31:54.985Z,27.56
2019-04-14T02:37:04.781Z,27.71
2019-04-14T02:42:20.917Z,28.13
2019-04-14T02:47:38.842Z,28.36
2019-04-14T02:52:30.025Z,31.56
2019-04-14T02:57:37.591Z,29.63
2019-04-14T03:02:42.648Z,28.96
2019-04-14T03:07:58.119Z,31.17
2019-04-14T03:13:05.712Z,29.46
2019-04-14T03:18:24.019Z,29.17
2019-04-14T03:23:24.965Z,27.27
2019-04-14T03:28:34.645Z,29.27
2019-04-14T03:34:06.284Z,29.05
2019-04-14T03:38:53.697Z,29.44
2019-04-14T03:43:51.831Z,28.64
2019-04-14T03:49:08.077Z,28.58
2019-04-14T03:54:03.327Z,28.13
2019-04-14T03:58:56.093Z,29.75
2019-04-14T04:04:05.432Z,29.36
2019-04-14T04:09:14.989Z,30.89
2019-04-14T04:14:24.513Z,30.07
2019-04-14T04:19:32.105Z,29.54
2019-04-14T04:24:41.383Z,27.30
2019-04-14T04:29:50.643Z,27.03
2019-04-14T04:34:59.904Z,26.74
2019-04-14T04:40:09.267Z,27.27
2019-04-14T04:45:17.138Z,27.89
2019-04-14T04:50:26.200Z,29.69
2019-04-14T04:55:35.465Z,26.38
2019-04-14T05:00:46.941Z,26.92
2019-04-14T05:05:53.638Z,26.92
2019-04-14T05:11:03.279Z,26.24
2019-04-14T05:16:12.700Z,26.54
2019-04-14T05:21:21.314Z,28.95
2019-04-14T05:26:28.899Z,26.98
2019-04-14T05:31:38.277Z,27.77
2019-04-14T05:36:47.881Z,26.15
2019-04-14T05:42:05.907Z,25.96
2019-04-14T05:47:04.633Z,25.10
2019-04-14T05:52:14.123Z,24.92
2019-04-14T05:57:24.197Z,25.15
2019-04-14T06:02:32.094Z,26.49
2019-04-14T06:07:40.613Z,24.36
2019-04-14T06:12:49.722Z,27.20
2019-04-14T06:17:58.962Z,24.53
2019-04-14T06:23:08.080Z,23.30
2019-04-14T06:28:17.398Z,22.40
2019-04-14T06:33:26.533Z,25.57
2019-04-14T06:38:35.813Z,23.70
2019-04-14T06:43:49.137Z,24.50
2019-04-14T06:48:53.775Z,22.51
2019-04-14T06:54:02.985Z,24.10
2019-04-14T06:59:12.313Z,22.37
2019-04-14T07:04:21.400Z,21.49
2019-04-14T07:09:30.645Z,23.20
2019-04-14T07:14:39.966Z,22.91
2019-04-14T07:20:01.044Z,21.00
2019-04-14T07:24:57.813Z,26.09
2019-04-14T07:30:07.105Z,22.84
2019-04-14T07:35:16.197Z,24.14
2019-04-14T07:40:25.522Z,24.41
2019-04-14T07:45:34.698Z,24.97
2019-04-14T07:50:43.985Z,24.85
2019-04-14T07:55:53.139Z,23.41
2019-04-14T08:01:02.436Z,25.53
2019-04-14T08:06:11.553Z,23.48
2019-04-14T08:11:20.746Z,22.94
2019-04-14T08:16:29.889Z,23.25
2019-04-14T08:21:39.103Z,24.03
2019-04-14T08:26:48.269Z,21.71
2019-04-14T08:31:57.677Z,22.96
2019-04-14T08:37:06.840Z,21.72
2019-04-14T08:42:16.085Z,20.92
2019-04-14T08:47:25.230Z,20.37
2019-04-14T08:52:34.403Z,21.90
2019-04-14T08:57:43.557Z,19.49
2019-04-14T09:02:52.799Z,19.88
2019-04-14T09:08:01.901Z,18.29
2019-04-14T09:13:11.122Z,20.01
2019-04-14T09:18:20.245Z,19.74
2019-04-14T09:23:29.388Z,21.76
2019-04-14T09:28:38.717Z,19.97
2019-04-14T09:33:47.920Z,18.36
2019-04-14T09:38:58.114Z,19.14
2019-04-14T09:43:57.383Z,20.67
2019-04-14T09:49:06.558Z,19.18
2019-04-14T09:54:15.682Z,19.29
2019-04-14T09:59:24.869Z,18.75
2019-04-14T10:04:34.179Z,19.21
2019-04-14T10:09:43.269Z,18.01
2019-04-14T10:14:52.448Z,20.01
2019-04-14T10:20:01.629Z,20.48
2019-04-14T10:25:10.898Z,19.63
2019-04-14T10:30:20.092Z,20.06
2019-04-14T10:35:29.317Z,20.65
2019-04-14T10:40:38.854Z,19.36
2019-04-14T10:45:48.323Z,18.77
2019-04-14T10:50:57.479Z,20.74
2019-04-14T10:56:06.698Z,20.29
2019-04-14T11:01:15.861Z,21.93
2019-04-14T11:06:25.022Z,18.99
2019-04-14T11:11:35.255Z,20.00
2019-04-14T11:16:34.499Z,16.68
2019-04-14T11:21:43.636Z,15.15
2019-04-14T11:26:52.913Z,17.41
2019-04-14T11:32:02.082Z,16.22
2019-04-14T11:37:12.177Z,16.26
2019-04-14T11:42:11.321Z,17.86
2019-04-14T11:47:20.649Z,16.41
2019-04-14T11:52:29.762Z,15.75
2019-04-14T11:57:39.000Z,15.50
2019-04-14T12:02:48.169Z,17.58
2019-04-14T12:07:57.473Z,15.93
2019-04-14T12:13:06.663Z,15.69
2019-04-14T12:18:15.834Z,14.80
2019-04-14T12:23:24.959Z,14.87
2019-04-14T12:28:34.243Z,16.38
2019-04-14T12:33:43.580Z,15.15
2019-04-14T12:38:52.880Z,14.96
2019-04-14T12:44:02.019Z,14.36
2019-04-14T12:49:11.378Z,14.73
2019-04-14T12:54:21.117Z,15.97
2019-04-14T12:59:30.493Z,16.32
2019-04-14T13:04:39.680Z,14.24
2019-04-14T13:09:49.886Z,14.84
2019-04-14T13:14:49.927Z,14.76
2019-04-14T13:19:49.420Z,14.14
2019-04-14T13:24:58.532Z,14.88
2019-04-14T13:30:07.814Z,13.12
2019-04-14T13:35:17.014Z,13.65
2019-04-14T13:40:26.369Z,14.15
2019-04-14T13:45:37.272Z,14.36
2019-04-14T13:50:38.238Z,13.92
2019-04-14T13:55:37.780Z,13.78
2019-04-14T14:00:48.167Z,13.84
2019-04-14T14:05:47.521Z,13.76
2019-04-14T14:10:57.808Z,16.22
2019-04-14T14:15:56.939Z,12.93
2019-04-14T14:21:09.227Z,15.19
2019-04-14T14:26:08.364Z,18.01
2019-04-14T14:31:17.656Z,20.12
2019-04-14T14:36:26.861Z,13.61
2019-04-14T14:41:36.075Z,12.87
2019-04-14T14:46:45.226Z,19.46
2019-04-14T14:51:57.205Z,25.88
2019-04-14T14:56:55.488Z,22.50
2019-04-14T15:02:04.653Z,19.67
2019-04-14T15:07:13.871Z,1999.31
2019-04-14T15:12:23.038Z,1999.25
2019-04-14T15:17:32.254Z,1796.58
2019-04-14T15:22:41.667Z,1999.39
2019-04-14T15:27:50.791Z,1999.40
2019-04-14T15:32:59.971Z,1401.36
2019-04-14T15:38:13.743Z,30.06
2019-04-14T15:43:15.996Z,31.28
2019-04-14T15:48:15.172Z,17.54
2019-04-14T15:53:37.289Z,14.51
2019-04-14T15:58:34.103Z,15.77
2019-04-14T16:03:43.488Z,12.86
2019-04-14T16:08:55.424Z,12.66
2019-04-14T16:13:54.542Z,12.60
2019-04-14T16:19:03.624Z,13.00
2019-04-14T16:24:12.818Z,11.78
2019-04-14T16:29:21.969Z,11.70
2019-04-14T16:34:34.464Z,11.53
2019-04-14T16:39:34.903Z,13.39
2019-04-14T16:44:33.489Z,13.10
2019-04-14T16:49:41.141Z,11.00
2019-04-14T16:54:50.810Z,12.34
2019-04-14T16:59:58.917Z,12.57
2019-04-14T17:05:08.166Z,12.81
2019-04-14T17:10:21.498Z,12.17
2019-04-14T17:15:20.550Z,12.10
2019-04-14T17:20:29.714Z,11.46
2019-04-14T17:25:38.960Z,12.92
2019-04-14T17:30:48.356Z,13.01
2019-04-14T17:35:57.529Z,11.82
2019-04-14T17:41:09.333Z,12.61
2019-04-14T17:46:07.875Z,11.42
2019-04-14T17:51:16.962Z,12.40
2019-04-14T17:56:26.187Z,12.29
2019-04-14T18:01:35.509Z,12.39
2019-04-14T18:06:46.102Z,11.80
2019-04-14T18:11:46.384Z,13.56
2019-04-14T18:16:45.720Z,13.58
2019-04-14T18:21:55.026Z,12.26
2019-04-14T18:27:10.118Z,11.69
2019-04-14T18:32:10.178Z,12.09
2019-04-14T18:37:09.328Z,12.52
2019-04-14T18:42:18.530Z,12.42
2019-04-14T18:47:27.702Z,12.55
2019-04-14T18:52:36.863Z,12.52
2019-04-14T18:57:46.244Z,12.34
2019-04-14T19:02:58.907Z,13.77
2019-04-14T19:07:58.332Z,11.79
2019-04-14T19:13:09.214Z,13.16
2019-04-14T19:18:16.601Z,13.60
2019-04-14T19:23:25.877Z,15.51
2019-04-14T19:28:35.055Z,15.11
2019-04-14T19:33:44.183Z,14.47
2019-04-14T19:38:53.421Z,14.70
2019-04-14T19:44:02.566Z,15.08
2019-04-14T19:49:11.849Z,16.38
2019-04-14T19:54:20.929Z,15.95
2019-04-14T19:59:30.286Z,15.39
2019-04-14T20:04:39.422Z,15.16
2019-04-14T20:09:48.582Z,16.85
2019-04-14T20:14:57.676Z,16.73
2019-04-14T20:20:06.953Z,16.61
2019-04-14T20:25:16.060Z,14.76
2019-04-14T20:30:25.249Z,16.58
2019-04-14T20:35:34.358Z,17.03
2019-04-14T20:40:43.490Z,19.24
2019-04-14T20:45:54.004Z,18.56
2019-04-14T20:50:53.073Z,17.78
2019-04-14T20:56:02.176Z,16.05
2019-04-14T21:01:11.515Z,19.52
2019-04-14T21:06:20.746Z,16.04
2019-04-14T21:11:29.903Z,15.22
2019-04-14T21:16:39.067Z,15.51
2019-04-14T21:21:48.300Z,15.31
2019-04-14T21:26:57.510Z,17.04
2019-04-14T21:32:06.662Z,16.35
2019-04-14T21:37:15.753Z,16.78
2019-04-14T21:42:24.953Z,15.81
2019-04-14T21:47:34.081Z,16.14
2019-04-14T21:52:43.340Z,17.37
2019-04-14T21:57:52.457Z,16.27
2019-04-14T22:03:01.671Z,18.22
2019-04-14T22:08:10.745Z,17.77
2019-04-14T22:13:19.959Z,16.90
2019-04-14T22:18:29.091Z,16.02
2019-04-14T22:23:38.341Z,16.93
2019-04-14T22:28:47.457Z,19.33
2019-04-14T22:33:56.568Z,17.83
2019-04-14T22:39:05.706Z,18.61
2019-04-14T22:44:14.935Z,17.72
2019-04-14T22:49:24.071Z,17.66
2019-04-14T22:54:33.221Z,18.34
2019-04-14T22:59:42.328Z,18.14
2019-04-14T23:04:51.468Z,18.54
2019-04-14T23:10:00.594Z,17.98
2019-04-14T23:15:09.818Z,19.06
2019-04-14T23:20:18.950Z,17.77
2019-04-14T23:25:28.102Z,18.73
2019-04-14T23:30:37.231Z,17.46
2019-04-14T23:35:46.532Z,17.47
2019-04-14T23:40:55.694Z,19.17
2019-04-14T23:46:04.954Z,17.06
2019-04-14T23:51:14.090Z,17.47
2019-04-14T23:56:23.245Z,17.70
